Tiempo atmosférico en la estación meteorológica de Sardón De Duero, Valladolid (720 m.)



Fecha
DESCASC
Temp. máxima en grados centígrados (hora)
DESCASC
Temp. mínima en grados centígrados (hora)
DESCASC
Temp. media en grados centígrados
DESCASC
Racha de viento máxima en m/sg (hora)
DESCASC
Velocidad máxima media en intervalos de 10 minutos(hora)
DESCASC
Precipitaciones diarias en mm
DESCASC
Precipitaciones de 00:00 a 06:00 en mm
DESCASC
Precipitaciones de 06:00 a 12:00 en mm
DESCASC
Precipitaciones de 12:00 a 18:00 en mm
DESCASC
Precipitaciones de 18:00 a 24:00 en mm
DESCASC
22-04-2019 19.7 (17:40) 2.7 (07:20) 11.2 7.22 (21:10) 4.44 (22:00) 0 0 0 0 0
21-04-2019 16.9 (14:40) 4.3 (07:40) 10.6 8.61 (10:50) 3.61 (10:50) 0 0 0 0 0
20-04-2019 23.5 (16:20) 7.8 (06:30) 15.7 11.67 (17:00) 5.56 (18:40) 0 0 0 0 0
19-04-2019 14.5 (12:20) 5.1 (07:50) 9.8 10.28 (22:50) 5.56 (23:00) 2.2 2.2 0 0 0
18-04-2019 14.1 (00:00) 8.5 (00:00) 11.3 6.11 (00:30) 3.89 (00:40) 4.4 2.2 0 0.6 1.6
17-04-2019 21.5 (13:20) 6.3 (00:00) 13.9 11.67 (15:10) 7.78 (15:20) 0.2 0 0 0 0.2
16-04-2019 -- (--) -- (--) -- -- (--) -- (--) -- -- -- 0 0
15-04-2019 -- (--) -- (--) -- -- (--) -- (--) -- 0 0 -- --
14-04-2019 23.9 (19:20) 5.4 (00:00) 14.6 6.94 (10:10) 4.72 (10:10) 0 0 0 0 0
13-04-2019 22.8 (18:30) -2.5 (-00:0) 10.1 6.67 (15:00) 3.06 (16:10) 0 0 0 0 0
12-04-2019 18.5 (18:00) -2 (07:40) 8.3 7.22 (14:00) 2.78 (14:30) 0 0 0 0 0
11-04-2019 16.3 (17:20) -2.2 (-00:0) 7 6.39 (21:40) 2.78 (15:00) 0 0 0 0 0
10-04-2019 14 (19:50) 4.1 (00:00) 9 9.72 (02:20) 5.83 (02:20) 1.6 0 0.4 1.2 0
09-04-2019 12.3 (18:10) 0.7 (00:00) 6.5 13.33 (18:30) 7.78 (18:30) 0.8 0 0.2 0.6 0
08-04-2019 15.3 (17:50) 5.4 (00:00) 10.4 9.17 (14:20) 6.11 (15:20) 1.2 1 0.2 0 0
07-04-2019 12.5 (14:50) 2.7 (00:00) 7.6 11.11 (17:50) 6.67 (17:50) 3.8 0 0 0 3.8
06-04-2019 9.2 (16:20) 2.8 (00:00) 6 15.56 (15:30) 9.72 (16:10) 0.6 0 0 0.6 0
05-04-2019 7.4 (15:20) 2.4 (00:00) 4.9 7.78 (05:50) 4.44 (04:40) 6.8 1.6 2.8 2.2 0.2
04-04-2019 12.5 (17:40) -5.2 (-00:0) 3.7 11.39 (16:40) 6.39 (16:00) 0.8 0 0 0 0.8
03-04-2019 13.5 (14:50) -1.6 (05:50) 5.9 10.83 (16:50) 5.83 (16:50) 0 0 0 0 0
02-04-2019 20.1 (16:00) 0.5 (00:00) 10.3 9.44 (23:00) 5.28 (19:00) 0 0 0 0 0
01-04-2019 20.7 (17:40) -1 (-00:0) 9.9 9.17 (17:50) 2.78 (17:50) 0 0 0 0 0
31-03-2019 21 (15:10) -0.8 (-00:0) 10.1 10 (18:30) 4.44 (18:00) 0 0 0 0 0
30-03-2019 22.4 (15:50) -1.9 (-00:0) 10.2 5.56 (15:00) 2.78 (15:00) 0 0 0 0 0
29-03-2019 22 (15:50) -2.1 (-00:0) 10 7.5 (22:00) 5.28 (22:00) 0 0 0 0 0
28-03-2019 21.8 (16:00) -2.1 (-00:0) 9.8 7.5 (00:20) 3.89 (20:50) 0 0 0 0 0
27-03-2019 21.9 (16:10) -1.9 (-00:0) 10 11.94 (22:30) 5.28 (18:10) 0 0 0 0 0
26-03-2019 22.9 (15:50) 2.9 (00:00) 12.9 12.5 (15:00) 5.28 (12:40) 0 0 0 0 0
25-03-2019 17.9 (16:00) 0.7 (00:00) 9.3 11.67 (18:00) 5.56 (15:10) 0 0 0 0 0

Gráficas

Temp. máximas Temp. mínimas Temp. medias Precipitaciones Rachas de viento máximas Velocidades máximas media en intervalos de 10 minutos

Datos horarios

Fecha y hora oficial Temperatura (ºC) Velocidad del viento (km/h) Dirección del viento Racha (km/h) Dirección de racha Precipitación (mm) Presión (hPa) Tendencia (hPa) Humedad (%)
2019-04-23 23:00:00 5.7 19 Sudoeste 27 Sudoeste 0 -- -- 83
2019-04-23 22:00:00 6.3 15 Sudoeste 24 Sudoeste 0 -- -- 81
2019-04-23 21:00:00 7.2 19 Oeste 32 Sudoeste 0 -- -- 76
2019-04-23 20:00:00 10.4 14 Oeste 33 Oeste 0 -- -- 64
2019-04-23 19:00:00 9.5 24 Oeste 48 Oeste 2.2 -- -- 70
2019-04-23 18:00:00 11.6 12 Oeste 40 Oeste 0 -- -- 52
2019-04-23 17:00:00 14.5 19 Sudoeste 41 Oeste 0 -- -- 43
2019-04-23 16:00:00 14.1 17 Sudoeste 30 Sudoeste 0 -- -- 39
2019-04-23 15:00:00 11.8 14 Oeste 30 Sudoeste 0 -- -- 56
2019-04-23 14:00:00 9.5 18 Oeste 28 Sudoeste 0 -- -- 67
2019-04-23 13:00:00 8.2 11 Oeste 22 Oeste 0.2 -- -- 81
2019-04-23 12:00:00 7 15 Oeste 24 Oeste 0 -- -- 90
2019-04-23 11:00:00 7.7 18 Oeste 27 Oeste 0 -- -- 84
2019-04-23 10:00:00 7.2 13 Sudoeste 23 Sudoeste 0 -- -- 89
2019-04-23 09:00:00 7.4 4 Sudoeste 23 Sudoeste 0.2 -- -- 90
2019-04-23 08:00:00 7.2 9 Sudoeste 13 Sudoeste 0 -- -- 95
2019-04-23 07:00:00 7.4 9 Sudoeste 30 Sudoeste 0.2 -- -- 93
2019-04-23 06:00:00 10.1 18 Sudoeste 29 Sudoeste 0 -- -- 87
2019-04-23 05:00:00 9.4 3 Este 8 Este 0 -- -- 98
2019-04-23 04:00:00 9.4 3 Sudeste 12 Sudeste 0.4 -- -- 97
2019-04-23 03:00:00 10.3 4 Sur 19 Sudoeste 0.8 -- -- 93
2019-04-23 02:00:00 11.4 13 Sudoeste 26 Sur 0 -- -- 80
2019-04-23 01:00:00 13 6 Sur 17 Sur 0 -- -- 61
2019-04-23 00:00:00 13.4 9 Sur 19 Sudoeste 0 -- -- 63
2019-04-22 23:00:00 13.8 5 Sudoeste 26 Sur 0 -- -- 58
2019-04-22 22:00:00 14.3 16 Sur 26 Sudoeste 0 -- -- 56
2019-04-22 21:00:00 15.3 6 Sur 11 Sur 0 -- -- 47
2019-04-22 20:00:00 17 9 Sudoeste 19 Sudoeste 0 -- -- 42
2019-04-22 19:00:00 18.7 10 Oeste 21 Sudoeste 0 -- -- 38
2019-04-22 18:00:00 19.1 8 Oeste 21 Oeste 0 -- -- 37
2019-04-22 17:00:00 18.5 9 Oeste 21 Noroeste 0 -- -- 42
2019-04-22 16:00:00 17.9 10 Oeste 26 Nordeste 0 -- -- 43
2019-04-22 15:00:00 16.5 8 Noroeste 23 Oeste 0 -- -- 47
2019-04-22 14:00:00 16.9 10 Sudoeste 20 Sudoeste 0 -- -- 48
2019-04-22 13:00:00 14.7 8 Sudoeste 16 Sudoeste 0 -- -- 54
2019-04-22 12:00:00 12.9 10 Sudoeste 19 Oeste 0 -- -- 60
2019-04-22 11:00:00 12.6 2 Sur 8 Sudoeste 0 -- -- 64
2019-04-22 10:00:00 9.8 0 Calma 5 Sudoeste 0 -- -- 78
2019-04-22 09:00:00 4.8 0 Calma 3 Norte 0 -- -- 97
2019-04-22 08:00:00 3 0 Calma 5 Sudoeste 0 -- -- 99
2019-04-22 07:00:00 3 0 Calma 4 Sudoeste 0 -- -- 98
2019-04-22 06:00:00 3 0 Calma 4 Este 0 -- -- 97
2019-04-22 05:00:00 4.3 3 Este 6 Este 0 -- -- 94
2019-04-22 04:00:00 5.1 0 Calma 6 Nordeste 0 -- -- 91
2019-04-22 03:00:00 7 3 Este 9 Nordeste 0 -- -- 86
2019-04-22 02:00:00 7.9 3 Nordeste 6 Nordeste 0 -- -- 85
2019-04-22 01:00:00 9.1 2 Este 4 Este 0 -- -- 82
2019-04-22 00:00:00 9 3 Este 5 Nordeste 0 -- -- 80
2019-04-21 23:00:00 9.5 2 Nordeste 5 Nordeste 0 -- -- 77
2019-04-21 22:00:00 10.5 2 Este 7 Este 0 -- -- 71
2019-04-21 21:00:00 11.4 5 Este 19 Sudeste 0 -- -- 64
2019-04-21 20:00:00 12.2 8 Este 21 Sudeste 0 -- -- 60
2019-04-21 19:00:00 13.2 8 Este 20 Este 0 -- -- 56
2019-04-21 18:00:00 14.7 6 Nordeste 18 Este 0 -- -- 55
2019-04-21 17:00:00 13.8 10 Este 23 Nordeste 0 -- -- 57
2019-04-21 16:00:00 13.7 9 Nordeste 19 Este 0 -- -- 56
2019-04-21 15:00:00 16.6 10 Este 23 Este 0 -- -- 48
2019-04-21 14:00:00 15.2 9 Nordeste 21 Norte 0 -- -- 55
2019-04-21 13:00:00 12.9 8 Nordeste 19 Nordeste 0 -- -- 63
2019-04-21 12:00:00 14.4 8 Este 22 Este 0 -- -- 57
2019-04-21 11:00:00 13.1 11 Este 31 Nordeste 0 -- -- 62
2019-04-21 10:00:00 11.1 9 Este 18 Nordeste 0 -- -- 72
2019-04-21 09:00:00 7.7 3 Nordeste 9 Este 0 -- -- 87
2019-04-21 08:00:00 4.5 3 Este 5 Nordeste 0 -- -- 95
2019-04-21 07:00:00 5.7 3 Este 8 Este 0 -- -- 90
2019-04-21 06:00:00 6.2 4 Este 13 Este 0 -- -- 88
2019-04-21 05:00:00 7.9 7 Este 18 Este 0 -- -- 80
2019-04-21 04:00:00 7.4 9 Nordeste 24 Este 0 -- -- 81
2019-04-21 03:00:00 8.9 9 Nordeste 19 Este 0 -- -- 73
2019-04-21 02:00:00 9.8 7 Este 15 Este 0 -- -- 74
2019-04-21 01:00:00 10.1 5 Nordeste 12 Nordeste 0 -- -- 77
2019-04-21 00:00:00 11.4 8 Este 23 Nordeste 0 -- -- 70
2019-04-20 23:00:00 12.7 8 Este 28 Nordeste 0 -- -- 61
2019-04-20 22:00:00 15.7 13 Nordeste 30 Nordeste 0 -- -- 47
2019-04-20 21:00:00 17.5 10 Nordeste 28 Nordeste 0 -- -- 47
2019-04-20 20:00:00 20.1 7 Nordeste 24 Este 0 -- -- 41
2019-04-20 19:00:00 20.6 14 Este 35 Nordeste 0 -- -- 38
2019-04-20 18:00:00 23 16 Nordeste 36 Norte 0 -- -- 33
2019-04-20 17:00:00 22.9 17 Nordeste 42 Nordeste 0 -- -- 35
2019-04-20 16:00:00 22.3 16 Nordeste 40 Norte 0 -- -- 38
2019-04-20 15:00:00 22.4 15 Nordeste 39 Este 0 -- -- 40
2019-04-20 14:00:00 21.2 13 Nordeste 33 Nordeste 0 -- -- 39
2019-04-20 13:00:00 20.1 16 Nordeste 36 Este 0 -- -- 41
2019-04-20 12:00:00 18.6 14 Este 38 Este 0 -- -- 46
2019-04-20 11:00:00 16.6 17 Este 36 Nordeste 0 -- -- 46
2019-04-20 10:00:00 13.8 6 Este 23 Nordeste 0 -- -- 65
2019-04-20 09:00:00 11.3 10 Este 21 Este 0 -- -- 70
2019-04-20 08:00:00 9.6 4 Este 18 Este 0 -- -- 80
2019-04-20 07:00:00 8.2 6 Este 10 Nordeste 0 -- -- 88
2019-04-20 06:00:00 8.7 4 Este 10 Este 0 -- -- 81
2019-04-20 05:00:00 10.3 3 Nordeste 13 Este 0 -- -- 73
2019-04-20 04:00:00 10.2 6 Este 12 Nordeste 0 -- -- 76
2019-04-20 03:00:00 11.7 8 Norte 42 Este 0 -- -- 67
2019-04-20 02:00:00 12.6 18 Este 41 Este 0 -- -- 63
2019-04-20 01:00:00 11.9 9 Este 34 Nordeste 0 -- -- 73
2019-04-20 00:00:00 12.5 15 Este 33 Este 0 -- -- 71
2019-04-19 23:00:00 13.1 20 Este 37 Este 0 -- -- 68
2019-04-19 22:00:00 13 12 Este 26 Este 0 -- -- 69
2019-04-19 21:00:00 12.8 6 Este 21 Nordeste 0 -- -- 72
2019-04-19 20:00:00 14.3 14 Este 31 Nordeste 0 -- -- 68
2019-04-19 19:00:00 14.4 10 Nordeste 28 Este 0 -- -- 71
2019-04-19 18:00:00 12.1 5 Nordeste 22 Este 0 -- -- 83
2019-04-19 17:00:00 11.3 12 Este 34 Este 0 -- -- 87
2019-04-19 16:00:00 11.3 11 Este 33 Este 0 -- -- 88
2019-04-19 15:00:00 13 12 Nordeste 31 Nordeste 0 -- -- 74
2019-04-19 14:00:00 13.5 12 Este 30 Este 0 -- -- 70
2019-04-19 13:00:00 13.8 12 Este 32 Este 0 -- -- 73
2019-04-19 12:00:00 14.4 13 Este 30 Este 0 -- -- 71
2019-04-19 11:00:00 12.6 12 Nordeste 25 Este 0 -- -- 83
2019-04-19 10:00:00 9.2 6 Nordeste 14 Este 0 -- -- 100
2019-04-19 09:00:00 6.7 3 Nordeste 6 Nordeste 0 -- -- 100
2019-04-19 08:00:00 5.4 2 Nordeste 5 Nordeste 0 -- -- 100
2019-04-19 07:00:00 6.1 3 Nordeste 5 Nordeste 0 -- -- 100
2019-04-19 06:00:00 7.5 2 Nordeste 8 Este 0 -- -- 100
2019-04-19 05:00:00 7.7 5 Este 14 Este 0 -- -- 100
2019-04-19 04:00:00 7.9 6 Este 15 Este 0 -- -- 100
2019-04-19 03:00:00 8.3 7 Este 14 Sudeste 0.2 -- -- 100
2019-04-19 02:00:00 8.6 2 Este 7 Este 0.8 -- -- 100
2019-04-19 01:00:00 8.6 0 Calma 6 Este 1.2 -- -- 100
2019-04-19 00:00:00 8.6 3 Nordeste 10 Nordeste 1.2 -- -- 98
2019-04-18 23:00:00 9.1 3 Nordeste 10 Nordeste 0.4 -- -- 96
2019-04-18 22:00:00 9.8 4 Nordeste 11 Este 0 -- -- 88
2019-04-18 21:00:00 10.3 8 Nordeste 14 Nordeste 0 -- -- 87
2019-04-18 20:00:00 10.8 5 Nordeste 22 Nordeste 0 -- -- 91
2019-04-18 19:00:00 12.4 5 Nordeste 12 Norte 0 -- -- 76
2019-04-18 18:00:00 11.5 6 Nordeste 13 Norte 0 -- -- 79
2019-04-18 17:00:00 11.2 4 Nordeste 12 Norte 0 -- -- 80
2019-04-18 16:00:00 11.3 5 Nordeste 19 Este 0 -- -- 83
2019-04-18 15:00:00 11.1 8 Este 20 Este 0 -- -- 83
2019-04-18 14:00:00 12.2 9 Este 20 Este 0.2 -- -- 82
2019-04-18 13:00:00 10.8 6 Este 16 Este 0.4 -- -- 93
2019-04-18 12:00:00 11 2 Este 17 Nordeste 0 -- -- 93
2019-04-18 11:00:00 9.6 6 Nordeste 16 Este 0 -- -- 99
2019-04-18 10:00:00 9.3 4 Nordeste 8 Nordeste 0 -- -- 99
2019-04-18 09:00:00 8.9 3 Este 8 Nordeste 0 -- -- 100
2019-04-18 08:00:00 8.5 2 Este 6 Este 0 -- -- 100
2019-04-18 07:00:00 8.7 3 Este 8 Nordeste 0 -- -- 100
2019-04-18 06:00:00 9 3 Este 6 Sudeste 0.6 -- -- 99
2019-04-18 05:00:00 9 0 Calma 6 Oeste 1.2 -- -- 98
2019-04-18 04:00:00 9.3 4 Sudoeste 14 Oeste 0.4 -- -- 97
2019-04-18 03:00:00 10.1 9 Oeste 21 Sudoeste 0 -- -- 90
2019-04-18 02:00:00 11 3 Oeste 12 Oeste 0 -- -- 84
2019-04-18 01:00:00 11.6 8 Oeste 22 Oeste 0 -- -- 79
2019-04-18 00:00:00 14.1 15 Sudoeste 26 Sur 0 -- -- 69
2019-04-17 23:00:00 15.1 16 Sudeste 34 Sudeste 0 -- -- 64
2019-04-17 22:00:00 14.8 18 Sur 33 Sudeste 0 -- -- 70
2019-04-17 21:00:00 14.2 6 Este 17 Sudeste 0 -- -- 77
2019-04-17 20:00:00 15.3 9 Sur 37 Sudoeste 0.2 -- -- 75
2019-04-17 19:00:00 19.4 6 Sudoeste 18 Oeste 0 -- -- 45
2019-04-17 18:00:00 20.3 11 Sudoeste 23 Sudoeste 0 -- -- 41
2019-04-17 17:00:00 19.8 15 Sur 40 Sudoeste 0 -- -- 39
2019-04-17 16:00:00 20.3 14 Sur 42 Sur 0 -- -- 37
2019-04-17 15:00:00 20.9 22 Sur 38 Sur 0 -- -- 33
2019-04-17 14:00:00 20.4 22 Sudoeste 39 Sur 0 -- -- 34
2019-04-17 13:00:00 17.8 9 Sudeste 27 Sur 0 -- -- 45
2019-04-17 12:00:00 14.5 5 Este 12 Este 0 -- -- 68
2019-04-17 11:00:00 11.4 6 Nordeste 15 Nordeste 0 -- -- 78
2019-04-17 10:00:00 9.6 3 Nordeste 14 Este 0 -- -- 83
2019-04-17 09:00:00 8.5 6 Este 14 Nordeste 0 -- -- 85
2019-04-17 08:00:00 9 4 Este 27 Sudoeste 0 -- -- 79
2019-04-17 07:00:00 13 11 Sur 29 Sur 0 -- -- 62
2019-04-17 06:00:00 6.8 4 Nordeste 13 Nordeste 0 -- -- 83
2019-04-17 05:00:00 7.8 6 Nordeste 19 Nordeste 0 -- -- 76
2019-04-17 04:00:00 7.5 3 Nordeste 13 Nordeste 0 -- -- 76
2019-04-17 03:00:00 7.7 4 Nordeste 10 Este 0 -- -- 76
2019-04-17 02:00:00 6.8 0 Calma 5 Este 0 -- -- 78
2019-04-17 01:00:00 8.7 0 Calma 8 Sudeste 0 -- -- 68
2019-04-17 00:00:00 10 2 Nordeste 10 Este 0 -- -- 65
2019-04-16 23:00:00 10.1 5 Este 8 Este 0 -- -- 67
2019-04-16 22:00:00 13.2 0 Calma 19 Sur 0 -- -- 56
2019-04-16 21:00:00 14.8 6 Sudeste 9 Sudeste 0 -- -- 53
2019-04-16 20:00:00 19.9 4 Sudeste 20 Este 0 -- -- 35
2019-04-16 19:00:00 21.6 15 Sur 25 Sudeste 0 -- -- 30
2019-04-16 18:00:00 21.7 6 Sur 23 Sur 0 -- -- 30
2019-04-16 17:00:00 21.2 6 Sur 26 Sur 0 -- -- 29
2019-04-16 16:00:00 20.1 8 Sur 23 Sur 0 -- -- 35
2019-04-16 15:00:00 19.4 8 Sudeste 20 Sur 0 -- -- 35
2019-04-16 14:00:00 17.8 9 Sudeste 22 Este 0 -- -- 41
2019-04-16 13:00:00 16.8 6 Este 14 Nordeste 0 -- -- 58
2019-04-16 12:00:00 12.9 6 Norte 13 Nordeste 0 -- -- 74
2019-04-16 11:00:00 8.8 7 Nordeste 12 Nordeste 0 -- -- 94
2019-04-16 10:00:00 5.5 3 Nordeste 8 Nordeste 0 -- -- 99
2019-04-16 09:00:00 -- -- -- -- -- -- -- -- --
2019-04-16 08:00:00 -- -- -- -- -- -- -- -- --
2019-04-16 07:00:00 -- -- -- -- -- -- -- -- --
2019-04-16 06:00:00 -- -- -- -- -- -- -- -- --
2019-04-16 05:00:00 -- -- -- -- -- -- -- -- --
2019-04-16 04:00:00 -- -- -- -- -- -- -- -- --
2019-04-16 03:00:00 -- -- -- -- -- -- -- -- --
2019-04-16 02:00:00 -- -- -- -- -- -- -- -- --
2019-04-16 01:00:00 -- -- -- -- -- -- -- -- --
2019-04-16 00:00:00 -- -- -- -- -- -- -- -- --
2019-04-15 23:00:00 -- -- -- -- -- -- -- -- --
2019-04-15 22:00:00 -- -- -- -- -- -- -- -- --
2019-04-15 21:00:00 -- -- -- -- -- -- -- -- --
2019-04-15 20:00:00 -- -- -- -- -- -- -- -- --
2019-04-15 19:00:00 -- -- -- -- -- -- -- -- --
2019-04-15 18:00:00 -- -- -- -- -- -- -- -- --
2019-04-15 17:00:00 -- -- -- -- -- -- -- -- --
2019-04-15 16:00:00 -- -- -- -- -- -- -- -- --
2019-04-15 15:00:00 -- -- -- -- -- -- -- -- --
2019-04-15 14:00:00 20.8 26 Sudoeste 41 Sur 0 -- -- 51
2019-04-15 13:00:00 -- -- -- -- -- -- -- -- --
2019-04-15 12:00:00 19.5 16 Sur 28 Sur 0 -- -- 58
2019-04-15 11:00:00 15.8 5 Nordeste 10 Este 0 -- -- 72
2019-04-15 10:00:00 12.6 7 Este 13 Este 0 -- -- 79
2019-04-15 09:00:00 10.3 6 Nordeste 13 Nordeste 0 -- -- 88
2019-04-15 08:00:00 8.2 5 Nordeste 9 Nordeste 0 -- -- 98
2019-04-15 07:00:00 7.9 3 Este 8 Nordeste 0 -- -- 97
2019-04-15 06:00:00 7.8 2 Sur 4 Sur 0 -- -- 98
2019-04-15 05:00:00 7.2 0 Calma 9 Nordeste 0 -- -- 98
2019-04-15 04:00:00 7.6 3 Este 6 Este 0 -- -- 96
2019-04-15 03:00:00 8.5 0 Calma 11 Nordeste 0 -- -- 94
2019-04-15 02:00:00 8.2 0 Calma 7 Nordeste 0 -- -- 94
2019-04-15 01:00:00 8.4 3 Este 7 Sudeste 0 -- -- 92
2019-04-15 00:00:00 9.8 0 Calma 5 Este 0 -- -- 86
2019-04-14 23:00:00 11.5 4 Este 11 Este 0 -- -- 81
2019-04-14 22:00:00 14 4 Este 9 Sudeste 0 -- -- 72
2019-04-14 21:00:00 16.7 5 Sudeste 9 Sudeste 0 -- -- 62
2019-04-14 20:00:00 21.7 3 Norte 9 Este 0 -- -- 45
2019-04-14 19:00:00 21.7 5 Oeste 15 Noroeste 0 -- -- 45
2019-04-14 18:00:00 22.3 5 Oeste 18 Oeste 0 -- -- 43
2019-04-14 17:00:00 21.6 4 Sudoeste 15 Noroeste 0 -- -- 47
2019-04-14 16:00:00 21.7 8 Oeste 21 Sudoeste 0 -- -- 47
2019-04-14 15:00:00 20 8 Noroeste 18 Oeste 0 -- -- 52
2019-04-14 14:00:00 19.8 8 Oeste 20 Sudoeste 0 -- -- 51
2019-04-14 13:00:00 18.4 12 Sudoeste 25 Oeste 0 -- -- 57
2019-04-14 12:00:00 15.9 12 Sudoeste 22 Sudoeste 0 -- -- 70
2019-04-14 11:00:00 12.9 12 Oeste 25 Sudoeste 0 -- -- 82
2019-04-14 10:00:00 12.5 10 Oeste 18 Oeste 0 -- -- 85
2019-04-14 09:00:00 12 10 Oeste 18 Sudoeste 0 -- -- 86
2019-04-14 08:00:00 10.8 7 Sudoeste 14 Sudoeste 0 -- -- 88
2019-04-14 07:00:00 11.6 8 Sudoeste 13 Sudoeste 0 -- -- 84
2019-04-14 06:00:00 11.8 9 Sudoeste 20 Oeste 0 -- -- 81
2019-04-14 05:00:00 11.4 4 Sudoeste 10 Sudoeste 0 -- -- 78
2019-04-14 04:00:00 11.3 8 Sudoeste 12 Oeste 0 -- -- 74
2019-04-14 03:00:00 8 0 Calma 4 Sur 0 -- -- 76
2019-04-14 02:00:00 6.2 0 Calma 0 Calma 0 -- -- 80
2019-04-14 01:00:00 5.4 0 Calma 2 Sur 0 -- -- 78
2019-04-14 00:00:00 6.1 0 Calma 5 Sur 0 -- -- 72
2019-04-13 23:00:00 7.3 2 Nordeste 5 Nordeste 0 -- -- 67
2019-04-13 22:00:00 9.7 3 Este 5 Sur 0 -- -- 57
2019-04-13 21:00:00 14.8 3 Sur 11 Oeste 0 -- -- 42
2019-04-13 20:00:00 20.1 6 Noroeste 16 Noroeste 0 -- -- 27
2019-04-13 19:00:00 21.3 10 Noroeste 21 Oeste 0 -- -- 26
2019-04-13 18:00:00 21.2 8 Oeste 21 Noroeste 0 -- -- 28
2019-04-13 17:00:00 21.5 5 Norte 20 Oeste 0 -- -- 24
2019-04-13 16:00:00 20.7 9 Noroeste 20 Oeste 0 -- -- 23
2019-04-13 15:00:00 20.1 8 Oeste 24 Noroeste 0 -- -- 28
2019-04-13 14:00:00 18.3 8 Norte 15 Norte 0 -- -- 29
2019-04-13 13:00:00 18.2 4 Noroeste 13 Oeste 0 -- -- 31
2019-04-13 12:00:00 15.4 5 Noroeste 10 Oeste 0 -- -- 42
2019-04-13 11:00:00 10.6 3 Oeste 6 Oeste 0 -- -- 57
2019-04-13 10:00:00 5.7 0 Calma 8 Este 0 -- -- 74
2019-04-13 09:00:00 -0.2 0 Calma 5 Nordeste 0 -- -- 100
2019-04-13 08:00:00 -2.5 2 Este 4 Este 0 -- -- 100
2019-04-13 07:00:00 -2.4 2 Este 5 Nordeste 0 -- -- 100
2019-04-13 06:00:00 -2.3 3 Este 5 Nordeste 0 -- -- 99
2019-04-13 05:00:00 -2.3 3 Nordeste 6 Este 0 -- -- 98
2019-04-13 04:00:00 -1.9 5 Este 6 Este 0 -- -- 97
2019-04-13 03:00:00 -1.5 0 Calma 4 Nordeste 0 -- -- 95
2019-04-13 02:00:00 0.1 2 Sudoeste 5 Este 0 -- -- 92
2019-04-13 01:00:00 0.7 2 Este 4 Este 0 -- -- 88
2019-04-13 00:00:00 2.5 2 Sudeste 9 Nordeste 0 -- -- 82
2019-04-12 23:00:00 3.5 0 Calma 4 Sur 0 -- -- 76
2019-04-12 22:00:00 5.9 0 Calma 6 Sudeste 0 -- -- 66
2019-04-12 21:00:00 11.2 2 Nordeste 8 Norte 0 -- -- 51
2019-04-12 20:00:00 16.6 5 Norte 13 Norte 0 -- -- 32
2019-04-12 19:00:00 17.6 6 Noroeste 15 Norte 0 -- -- 34
2019-04-12 18:00:00 18.5 4 Nordeste 14 Norte 0 -- -- 33
2019-04-12 17:00:00 17.1 7 Norte 19 Noroeste 0 -- -- 35
2019-04-12 16:00:00 16.4 8 Norte 18 Nordeste 0 -- -- 35
2019-04-12 15:00:00 15.2 6 Noroeste 22 Noroeste 0 -- -- 39
2019-04-12 14:00:00 13.8 9 Norte 26 Norte 0 -- -- 42
2019-04-12 13:00:00 13.1 6 Norte 17 Norte 0 -- -- 47
2019-04-12 12:00:00 11.6 8 Norte 17 Norte 0 -- -- 54
2019-04-12 11:00:00 9.2 5 Nordeste 14 Este 0 -- -- 66
2019-04-12 10:00:00 5.2 0 Calma 3 Oeste 0 -- -- 97
2019-04-12 09:00:00 0.2 2 Oeste 3 Oeste 0 -- -- 100
2019-04-12 08:00:00 -2 0 Calma 4 Este 0 -- -- 100
2019-04-12 07:00:00 -1.9 2 Sudeste 4 Sudeste 0 -- -- 100
2019-04-12 06:00:00 -1 0 Calma 5 Este 0 -- -- 100
2019-04-12 05:00:00 -1.1 3 Este 5 Este 0 -- -- 99
2019-04-12 04:00:00 -0.3 3 Este 9 Este 0 -- -- 98
2019-04-12 03:00:00 1.6 5 Este 9 Este 0 -- -- 98
2019-04-12 02:00:00 2.8 4 Este 12 Este 0 -- -- 94
2019-04-12 01:00:00 3.8 5 Nordeste 10 Nordeste 0 -- -- 90
2019-04-12 00:00:00 4.9 4 Nordeste 15 Este 0 -- -- 87
2019-04-11 23:00:00 7.1 8 Nordeste 22 Nordeste 0 -- -- 77
2019-04-11 22:00:00 8.3 9 Nordeste 23 Este 0 -- -- 72
2019-04-11 21:00:00 9.6 2 Este 8 Nordeste 0 -- -- 62
2019-04-11 20:00:00 15.8 6 Este 14 Nordeste 0 -- -- 40
2019-04-11 19:00:00 13.4 5 Nordeste 12 Noroeste 0 -- -- 45
2019-04-11 18:00:00 13.6 6 Nordeste 14 Norte 0 -- -- 39
2019-04-11 17:00:00 15.6 9 Norte 15 Norte 0 -- -- 37
2019-04-11 16:00:00 14 8 Noroeste 22 Noroeste 0 -- -- 39
2019-04-11 15:00:00 13.2 10 Noroeste 19 Oeste 0 -- -- 47
2019-04-11 14:00:00 12.8 5 Oeste 20 Oeste 0 -- -- 50
2019-04-11 13:00:00 13.1 5 Noroeste 14 Noroeste 0 -- -- 51
2019-04-11 12:00:00 10 8 Noroeste 13 Noroeste 0 -- -- 63
2019-04-11 11:00:00 8.2 3 Sur 9 Oeste 0 -- -- 73
2019-04-11 10:00:00 3.9 5 Oeste 8 Noroeste 0 -- -- 100
2019-04-11 09:00:00 -0.3 0 Calma 3 Sudoeste 0 -- -- 100
2019-04-11 08:00:00 -2.1 0 Calma 2 Sur 0 -- -- 100
2019-04-11 07:00:00 -1.9 0 Calma 4 Sudeste 0 -- -- 100
2019-04-11 06:00:00 -1.7 0 Calma 5 Sudoeste 0 -- -- 100
2019-04-11 05:00:00 -1.1 0 Calma 4 Sur 0 -- -- 100
2019-04-11 04:00:00 -0.2 3 Nordeste 6 Nordeste 0 -- -- 100
2019-04-11 03:00:00 0.4 4 Este 6 Este 0 -- -- 99
2019-04-11 02:00:00 1.3 4 Nordeste 6 Nordeste 0 -- -- 98
2019-04-11 01:00:00 2.7 2 Nordeste 9 Nordeste 0 -- -- 94
2019-04-11 00:00:00 5.9 4 Nordeste 15 Este 0 -- -- 84
2019-04-10 23:00:00 5.5 4 Nordeste 9 Este 0 -- -- 90
2019-04-10 22:00:00 6 4 Este 16 Norte 0 -- -- 84
2019-04-10 21:00:00 8.6 12 Nordeste 25 Norte 0 -- -- 72
2019-04-10 20:00:00 12.6 6 Norte 17 Nordeste 0 -- -- 53
2019-04-10 19:00:00 12.6 7 Norte 20 Nordeste 0 -- -- 53
2019-04-10 18:00:00 13.3 10 Norte 19 Norte 0 -- -- 56
2019-04-10 17:00:00 12.7 6 Nordeste 17 Nordeste 0 -- -- 60
2019-04-10 16:00:00 10.6 6 Nordeste 13 Este 0.2 -- -- 76
2019-04-10 15:00:00 7 6 Norte 24 Norte 1 -- -- 87
2019-04-10 14:00:00 10.6 8 Noroeste 22 Oeste 0 -- -- 65
2019-04-10 13:00:00 8.8 13 Oeste 22 Oeste 0 -- -- 76
2019-04-10 12:00:00 8.1 10 Sudoeste 21 Oeste 0 -- -- 81
2019-04-10 11:00:00 6.4 11 Oeste 16 Oeste 0.2 -- -- 87
2019-04-10 10:00:00 5.1 9 Oeste 17 Oeste 0 -- -- 95
2019-04-10 09:00:00 4.5 10 Sudoeste 16 Sudoeste 0.2 -- -- 97
2019-04-10 08:00:00 4.1 11 Oeste 16 Oeste 0 -- -- 95
2019-04-10 07:00:00 4.5 7 Oeste 18 Sudoeste 0 -- -- 94
2019-04-10 06:00:00 4.7 12 Sudoeste 24 Sudoeste 0 -- -- 93
2019-04-10 05:00:00 5.1 14 Sudoeste 26 Oeste 0 -- -- 91
2019-04-10 04:00:00 5.6 17 Oeste 27 Oeste 0 -- -- 89
2019-04-10 03:00:00 6.2 18 Oeste 35 Oeste 0 -- -- 87
2019-04-10 02:00:00 6.5 17 Oeste 27 Oeste 0 -- -- 86
2019-04-10 01:00:00 5.6 9 Sudoeste 21 Sudoeste 0 -- -- 90
2019-04-10 00:00:00 6.1 13 Sudoeste 21 Sudoeste 0 -- -- 87
2019-04-09 23:00:00 6.7 14 Sudoeste 31 Oeste 0 -- -- 84
2019-04-09 22:00:00 7.8 15 Oeste 23 Oeste 0 -- -- 72
2019-04-09 21:00:00 8.8 14 Oeste 28 Oeste 0 -- -- 66
2019-04-09 20:00:00 11 18 Oeste 30 Oeste 0 -- -- 62
2019-04-09 19:00:00 10.3 23 Oeste 48 Noroeste 0 -- -- 65
2019-04-09 18:00:00 11.7 14 Oeste 41 Oeste 0 -- -- 57
2019-04-09 17:00:00 11.8 21 Oeste 41 Oeste 0 -- -- 57
2019-04-09 16:00:00 9.8 24 Oeste 40 Oeste 0 -- -- 64
2019-04-09 15:00:00 8.6 24 Oeste 38 Oeste 0 -- -- 77
2019-04-09 14:00:00 8.6 23 Sudoeste 38 Oeste 0.2 -- -- 83
2019-04-09 13:00:00 6.7 18 Sudoeste 39 Oeste 0.4 -- -- 92
2019-04-09 12:00:00 7.8 15 Sudoeste 31 Oeste 0 -- -- 84
2019-04-09 11:00:00 6.9 17 Sudoeste 31 Sudoeste 0 -- -- 86
2019-04-09 10:00:00 6.6 17 Sudoeste 33 Sudoeste 0 -- -- 87
2019-04-09 09:00:00 5.6 16 Sudoeste 29 Sudoeste 0.2 -- -- 91
2019-04-09 08:00:00 5.1 6 Sudoeste 12 Sudoeste 0 -- -- 93
2019-04-09 07:00:00 3.1 3 Este 6 Este 0 -- -- 100
2019-04-09 06:00:00 1.4 0 Calma 4 Oeste 0 -- -- 99
2019-04-09 05:00:00 0.8 0 Calma 7 Oeste 0 -- -- 98
2019-04-09 04:00:00 2.7 6 Oeste 13 Sudoeste 0 -- -- 95
2019-04-09 03:00:00 3.8 6 Oeste 14 Sudoeste 0 -- -- 94
2019-04-09 02:00:00 4 3 Oeste 13 Oeste 0 -- -- 94
2019-04-09 01:00:00 4.2 5 Oeste 10 Oeste 0 -- -- 94
2019-04-09 00:00:00 5.7 5 Oeste 12 Oeste 0 -- -- 82
2019-04-08 23:00:00 5.8 4 Sudoeste 13 Sudoeste 0 -- -- 80
2019-04-08 22:00:00 7.8 11 Sudoeste 24 Oeste 0 -- -- 70
2019-04-08 21:00:00 10 12 Oeste 22 Oeste 0 -- -- 61
2019-04-08 20:00:00 11.3 14 Oeste 28 Oeste 0 -- -- 58
2019-04-08 19:00:00 12.7 16 Oeste 29 Oeste 0 -- -- 51
2019-04-08 18:00:00 14.4 14 Oeste 27 Oeste 0 -- -- 47
2019-04-08 17:00:00 13.2 10 Oeste 25 Oeste 0 -- -- 52
2019-04-08 16:00:00 14.2 12 Oeste 32 Oeste 0 -- -- 52
2019-04-08 15:00:00 13.5 12 Oeste 33 Oeste 0 -- -- 59
2019-04-08 14:00:00 12.4 17 Oeste 30 Oeste 0 -- -- 54
2019-04-08 13:00:00 10.7 18 Oeste 29 Oeste 0 -- -- 69
2019-04-08 12:00:00 9.9 18 Oeste 30 Oeste 0 -- -- 75
2019-04-08 11:00:00 10 14 Oeste 24 Oeste 0 -- -- 82
2019-04-08 10:00:00 9 14 Oeste 25 Sudoeste 0 -- -- 88
2019-04-08 09:00:00 8.1 18 Oeste 29 Sudoeste 0 -- -- 94
2019-04-08 08:00:00 8.1 13 Sudoeste 24 Oeste 0 -- -- 97
2019-04-08 07:00:00 8.1 15 Sudoeste 24 Sudoeste 0.2 -- -- 97
2019-04-08 06:00:00 7.9 11 Sudoeste 21 Sudoeste 0.6 -- -- 98
2019-04-08 05:00:00 8.1 11 Sudoeste 30 Sudoeste 0.2 -- -- 95
2019-04-08 04:00:00 8.5 14 Sudoeste 26 Sudoeste 0 -- -- 91
2019-04-08 03:00:00 8 12 Sudoeste 25 Sudoeste 0 -- -- 94
2019-04-08 02:00:00 7.7 12 Sudoeste 27 Sudoeste 0 -- -- 94
2019-04-08 01:00:00 7 8 Sudoeste 15 Sur 0.2 -- -- 96
2019-04-08 00:00:00 5.8 4 Nordeste 9 Este 0 -- -- 98
2019-04-07 23:00:00 5.7 3 Nordeste 10 Nordeste 0.4 -- -- 98
2019-04-07 22:00:00 5.7 3 Sudeste 12 Sudeste 0.8 -- -- 97
2019-04-07 21:00:00 5.7 4 Sudeste 16 Sudoeste 0.8 -- -- 95
2019-04-07 20:00:00 6.2 13 Sudoeste 23 Sudoeste 0.8 -- -- 91
2019-04-07 19:00:00 6.7 17 Sudoeste 32 Sudoeste 1 -- -- 91
2019-04-07 18:00:00 8.9 22 Sudoeste 40 Sudoeste 0 -- -- 71
2019-04-07 17:00:00 12.1 16 Oeste 30 Sudoeste 0 -- -- 45
2019-04-07 16:00:00 12.2 18 Sudoeste 31 Sudoeste 0 -- -- 44
2019-04-07 15:00:00 12.4 18 Sudoeste 30 Sudoeste 0 -- -- 47
2019-04-07 14:00:00 11.1 13 Oeste 31 Oeste 0 -- -- 49
2019-04-07 13:00:00 9.9 12 Oeste 23 Sur 0 -- -- 54
2019-04-07 12:00:00 7.3 14 Sudoeste 23 Sudoeste 0 -- -- 70
2019-04-07 11:00:00 5.7 14 Sudoeste 22 Oeste 0 -- -- 77
2019-04-07 10:00:00 4 12 Sudoeste 21 Oeste 0 -- -- 86
2019-04-07 09:00:00 3.4 9 Sudoeste 17 Sudoeste 0 -- -- 90
2019-04-07 08:00:00 3.1 15 Oeste 26 Oeste 0 -- -- 90
2019-04-07 07:00:00 2.8 14 Oeste 30 Oeste 0 -- -- 90
2019-04-07 06:00:00 3.3 15 Oeste 25 Oeste 0 -- -- 89
2019-04-07 05:00:00 3.7 16 Oeste 33 Oeste 0 -- -- 89
2019-04-07 04:00:00 3.9 15 Oeste 26 Oeste 0 -- -- 89
2019-04-07 03:00:00 4.1 13 Oeste 21 Oeste 0 -- -- 88
2019-04-07 02:00:00 3.6 8 Sudoeste 23 Oeste 0 -- -- 89
2019-04-07 01:00:00 3.4 12 Sudoeste 26 Oeste 0 -- -- 85
2019-04-07 00:00:00 4 16 Sudoeste 29 Oeste 0 -- -- 78
2019-04-06 23:00:00 4.7 14 Sudoeste 26 Oeste 0 -- -- 75
2019-04-06 22:00:00 6.4 16 Oeste 42 Oeste 0 -- -- 68
2019-04-06 21:00:00 7 21 Oeste 43 Oeste 0 -- -- 62
2019-04-06 20:00:00 8 26 Oeste 52 Oeste 0 -- -- 62
2019-04-06 19:00:00 8.1 27 Oeste 45 Oeste 0 -- -- 66
2019-04-06 18:00:00 7.6 27 Oeste 48 Oeste 0 -- -- 71
2019-04-06 17:00:00 7.6 28 Oeste 56 Oeste 0.2 -- -- 76
2019-04-06 16:00:00 8.2 34 Oeste 56 Sudoeste 0 -- -- 70
2019-04-06 15:00:00 7.7 28 Oeste 46 Oeste 0.2 -- -- 73
2019-04-06 14:00:00 6 27 Sudoeste 51 Oeste 0 -- -- 84
2019-04-06 13:00:00 5.5 26 Sudoeste 45 Oeste 0.2 -- -- 84
2019-04-06 12:00:00 6.4 27 Sudoeste 44 Oeste 0 -- -- 75
2019-04-06 11:00:00 5.5 30 Sudoeste 49 Sudoeste 0 -- -- 78
2019-04-06 10:00:00 4.9 24 Sudoeste 39 Sudoeste 0 -- -- 84
2019-04-06 09:00:00 4 24 Sudoeste 37 Sudoeste 0 -- -- 87
2019-04-06 08:00:00 3.2 20 Sudoeste 30 Sudoeste 0 -- -- 91
2019-04-06 07:00:00 3.2 18 Sudoeste 32 Sudoeste 0 -- -- 89
2019-04-06 06:00:00 3.3 17 Sudoeste 30 Sudoeste 0 -- -- 90
2019-04-06 05:00:00 3.2 13 Sudoeste 23 Sudoeste 0 -- -- 91
2019-04-06 04:00:00 3.4 17 Oeste 27 Oeste 0 -- -- 91
2019-04-06 03:00:00 3.5 14 Oeste 23 Oeste 0 -- -- 91
2019-04-06 02:00:00 3.4 17 Oeste 28 Sudoeste 0 -- -- 92
2019-04-06 01:00:00 3.5 13 Sudoeste 24 Sudoeste 0 -- -- 92
2019-04-06 00:00:00 3.5 14 Sudoeste 23 Sudoeste 0 -- -- 91
2019-04-05 23:00:00 3.7 4 Sudoeste 8 Sur 0 -- -- 94
2019-04-05 22:00:00 3.3 9 Sur 18 Sur 0.2 -- -- 95
2019-04-05 21:00:00 2.9 5 Este 12 Este 0 -- -- 94
2019-04-05 20:00:00 6.5 3 Sudoeste 17 Sudeste 0 -- -- 82
2019-04-05 19:00:00 5.4 2 Sudeste 11 Sudeste 0 -- -- 87
2019-04-05 18:00:00 4 5 Sudeste 10 Sur 0.4 -- -- 94
2019-04-05 17:00:00 3.1 8 Sudoeste 24 Oeste 1.8 -- -- 93
2019-04-05 16:00:00 6.7 12 Sur 19 Sur 0 -- -- 75
2019-04-05 15:00:00 6.1 10 Sur 18 Sur 0 -- -- 79
2019-04-05 14:00:00 5.5 5 Sur 22 Oeste 0 -- -- 81
2019-04-05 13:00:00 4.9 9 Sudoeste 27 Oeste 0 -- -- 86
2019-04-05 12:00:00 5.4 12 Oeste 22 Oeste 0 -- -- 85
2019-04-05 11:00:00 5 11 Sudoeste 18 Sudoeste 0 -- -- 90
2019-04-05 10:00:00 3.2 4 Sur 21 Sudoeste 1.8 -- -- 96
2019-04-05 09:00:00 3.2 13 Oeste 26 Oeste 0.8 -- -- 97
2019-04-05 08:00:00 4.5 8 Oeste 17 Sudoeste 0.2 -- -- 96
2019-04-05 07:00:00 4.7 4 Oeste 14 Oeste 0 -- -- 93
2019-04-05 06:00:00 4.7 12 Sudoeste 28 Sur 0.2 -- -- 90
2019-04-05 05:00:00 3.8 14 Sur 27 Sur 1 -- -- 92
2019-04-05 04:00:00 4.4 11 Sudoeste 20 Sur 0.4 -- -- 89
2019-04-05 03:00:00 4.6 7 Sur 14 Sur 0 -- -- 87
2019-04-05 02:00:00 4.2 4 Sudeste 10 Sudeste 0 -- -- 93
2019-04-05 01:00:00 4.4 4 Sudoeste 9 Sudoeste 0 -- -- 93
2019-04-05 00:00:00 4.6 6 Sudoeste 10 Sudoeste 0.2 -- -- 92
2019-04-04 23:00:00 4.5 3 Sudoeste 13 Oeste 0.6 -- -- 92
2019-04-04 22:00:00 4.9 7 Oeste 21 Oeste 0 -- -- 85
2019-04-04 21:00:00 6.1 16 Oeste 32 Oeste 0 -- -- 69
2019-04-04 20:00:00 9.2 15 Oeste 27 Oeste 0 -- -- 40
2019-04-04 19:00:00 10.4 15 Oeste 28 Oeste 0 -- -- 35
2019-04-04 18:00:00 11.5 17 Sudoeste 36 Sudoeste 0 -- -- 31
2019-04-04 17:00:00 11.7 18 Oeste 41 Sudoeste 0 -- -- 30
2019-04-04 16:00:00 12.2 23 Sudoeste 37 Sudoeste 0 -- -- 31
2019-04-04 15:00:00 10.6 21 Oeste 33 Sudoeste 0 -- -- 34
2019-04-04 14:00:00 10.9 15 Sudoeste 27 Sudoeste 0 -- -- 36
2019-04-04 13:00:00 8.6 15 Sudoeste 29 Sudoeste 0 -- -- 42
2019-04-04 12:00:00 7.4 10 Sudoeste 26 Sudoeste 0 -- -- 46
2019-04-04 11:00:00 4.9 11 Oeste 20 Oeste 0 -- -- 54
2019-04-04 10:00:00 1.7 6 Oeste 10 Oeste 0 -- -- 69
2019-04-04 09:00:00 -1.8 6 Oeste 10 Oeste 0 -- -- 84
2019-04-04 08:00:00 -4.8 4 Sudoeste 6 Sudoeste 0 -- -- 91
2019-04-04 07:00:00 -3.8 2 Sudoeste 6 Sudoeste 0 -- -- 90
2019-04-04 06:00:00 -1.4 6 Sudoeste 12 Sur 0 -- -- 83
2019-04-04 05:00:00 -3.5 0 Calma 8 Sudoeste 0 -- -- 88
2019-04-04 04:00:00 -0.6 5 Sudoeste 12 Sudoeste 0 -- -- 76
2019-04-04 03:00:00 -1.9 4 Sudoeste 9 Sur 0 -- -- 79
2019-04-04 02:00:00 -2.6 3 Sudoeste 6 Sudoeste 0 -- -- 77
2019-04-04 01:00:00 -2 3 Sur 8 Noroeste 0 -- -- 72
2019-04-04 00:00:00 2 4 Noroeste 11 Norte 0 -- -- 61
2019-04-03 23:00:00 2.2 0 Calma 12 Norte 0 -- -- 55
2019-04-03 22:00:00 4.3 5 Norte 21 Norte 0 -- -- 45
2019-04-03 21:00:00 7 6 Noroeste 22 Noroeste 0 -- -- 43
2019-04-03 20:00:00 9.8 13 Noroeste 36 Noroeste 0 -- -- 38
2019-04-03 19:00:00 11.9 13 Noroeste 32 Norte 0 -- -- 38
2019-04-03 18:00:00 9.2 19 Norte 36 Noroeste 0 -- -- 48
2019-04-03 17:00:00 12.5 18 Noroeste 39 Oeste 0 -- -- 31
2019-04-03 16:00:00 11.8 13 Noroeste 32 Noroeste 0 -- -- 35
2019-04-03 15:00:00 11.3 15 Noroeste 29 Oeste 0 -- -- 32
2019-04-03 14:00:00 11.6 13 Noroeste 31 Oeste 0 -- -- 35
2019-04-03 13:00:00 11.4 13 Oeste 22 Oeste 0 -- -- 40
2019-04-03 12:00:00 9.3 9 Oeste 19 Oeste 0 -- -- 52
2019-04-03 11:00:00 6.4 11 Oeste 19 Oeste 0 -- -- 65
2019-04-03 10:00:00 5.5 5 Oeste 14 Sudoeste 0 -- -- 77
2019-04-03 09:00:00 4.3 7 Sudoeste 10 Sudoeste 0 -- -- 87
2019-04-03 08:00:00 2.8 4 Oeste 7 Sudoeste 0 -- -- 95
2019-04-03 07:00:00 2.3 6 Sudoeste 10 Sudoeste 0 -- -- 97
2019-04-03 06:00:00 -1.4 0 Calma 2 Sur 0 -- -- 98
2019-04-03 05:00:00 -0.7 0 Calma 2 Sur 0 -- -- 96
2019-04-03 04:00:00 0.6 0 Calma 3 Oeste 0 -- -- 95
2019-04-03 03:00:00 1.5 0 Calma 5 Sudeste 0 -- -- 91
2019-04-03 02:00:00 3.9 3 Norte 9 Nordeste 0 -- -- 87
2019-04-03 01:00:00 6.7 4 Este 14 Norte 0 -- -- 79
2019-04-03 00:00:00 10.5 10 Noroeste 29 Oeste 0 -- -- 56
2019-04-02 23:00:00 12.2 15 Oeste 34 Oeste 0 -- -- 46
2019-04-02 22:00:00 11.9 5 Sudoeste 9 Sudoeste 0 -- -- 49
2019-04-02 21:00:00 11.4 3 Sudoeste 21 Oeste 0 -- -- 48
2019-04-02 20:00:00 16.5 13 Oeste 30 Oeste 0 -- -- 36
2019-04-02 19:00:00 18.5 19 Oeste 30 Oeste 0 -- -- 30
2019-04-02 18:00:00 18.6 14 Oeste 32 Oeste 0 -- -- 36
2019-04-02 17:00:00 19.5 18 Oeste 33 Oeste 0 -- -- 31
2019-04-02 16:00:00 20.1 12 Oeste 30 Oeste 0 -- -- 32
2019-04-02 15:00:00 18.2 13 Sudoeste 26 Sudoeste 0 -- -- 42
2019-04-02 14:00:00 17.3 14 Oeste 26 Oeste 0 -- -- 44
2019-04-02 13:00:00 15.8 6 Oeste 19 Oeste 0 -- -- 53
2019-04-02 12:00:00 14.2 4 Noroeste 9 Noroeste 0 -- -- 57
2019-04-02 11:00:00 12.2 0 Calma 8 Sur 0 -- -- 62
2019-04-02 10:00:00 7.4 0 Calma 4 Este 0 -- -- 76
2019-04-02 09:00:00 3.2 2 Este 4 Nordeste 0 -- -- 90
2019-04-02 08:00:00 1.6 0 Calma 5 Este 0 -- -- 91
2019-04-02 07:00:00 1.1 0 Calma 5 Nordeste 0 -- -- 89
2019-04-02 06:00:00 1.7 0 Calma 4 Este 0 -- -- 87
2019-04-02 05:00:00 0.6 0 Calma 5 Sudeste 0 -- -- 86
2019-04-02 04:00:00 0.5 4 Este 8 Este 0 -- -- 86
2019-04-02 03:00:00 2.7 0 Calma 9 Este 0 -- -- 78
2019-04-02 02:00:00 4.5 3 Sudeste 19 Oeste 0 -- -- 72
2019-04-02 01:00:00 3.7 5 Nordeste 8 Este 0 -- -- 74
2019-04-02 00:00:00 4.1 2 Norte 5 Norte 0 -- -- 71
2019-04-01 23:00:00 4.2 0 Calma 4 Sudeste 0 -- -- 67
2019-04-01 22:00:00 6.6 3 Este 7 Sudeste 0 -- -- 61
2019-04-01 21:00:00 9.5 3 Este 5 Sudeste 0 -- -- 54
2019-04-01 20:00:00 16.8 4 Noroeste 11 Nordeste 0 -- -- 34
2019-04-01 19:00:00 19.2 3 Norte 16 Norte 0 -- -- 30
2019-04-01 18:00:00 19.9 6 Noroeste 33 Oeste 0 -- -- 28
2019-04-01 17:00:00 18.3 6 Noroeste 17 Norte 0 -- -- 31
2019-04-01 16:00:00 18.8 8 Norte 17 Norte 0 -- -- 32
2019-04-01 15:00:00 15.8 5 Norte 17 Nordeste 0 -- -- 38
2019-04-01 14:00:00 16.2 5 Norte 18 Norte 0 -- -- 42
2019-04-01 13:00:00 15.9 6 Nordeste 17 Nordeste 0 -- -- 45
2019-04-01 12:00:00 15.3 5 Este 17 Nordeste 0 -- -- 53
2019-04-01 11:00:00 11.5 5 Este 14 Nordeste 0 -- -- 68
2019-04-01 10:00:00 6.4 2 Norte 4 Norte 0 -- -- 94
2019-04-01 09:00:00 0.8 0 Calma 5 Este 0 -- -- 100
2019-04-01 08:00:00 -0.9 0 Calma 3 Noroeste 0 -- -- 100
2019-04-01 07:00:00 0.2 3 Sur 5 Este 0 -- -- 100
2019-04-01 06:00:00 0.9 0 Calma 5 Sudeste 0 -- -- 99
2019-04-01 05:00:00 1.2 3 Nordeste 7 Sudeste 0 -- -- 98
2019-04-01 04:00:00 1.4 3 Sudeste 5 Sudeste 0 -- -- 97
2019-04-01 03:00:00 2.6 3 Nordeste 10 Nordeste 0 -- -- 95
2019-04-01 02:00:00 2.1 4 Este 6 Este 0 -- -- 93
2019-04-01 01:00:00 4.1 0 Calma 5 Este 0 -- -- 86
2019-04-01 00:00:00 7.5 4 Este 21 Este 0 -- -- 76
2019-03-31 23:00:00 8.4 5 Este 17 Este 0 -- -- 73
2019-03-31 22:00:00 9.2 10 Este 27 Este 0 -- -- 70
2019-03-31 21:00:00 10.7 10 Este 29 Nordeste 0 -- -- 67
2019-03-31 20:00:00 14.3 10 Este 28 Este 0 -- -- 57
2019-03-31 19:00:00 16.5 14 Este 36 Este 0 -- -- 46
2019-03-31 18:00:00 18.7 16 Este 31 Este 0 -- -- 37
2019-03-31 17:00:00 19.2 15 Este 30 Este 0 -- -- 34
2019-03-31 16:00:00 18.2 13 Este 31 Nordeste 0 -- -- 35
2019-03-31 15:00:00 20.8 14 Este 34 Este 0 -- -- 31
2019-03-31 14:00:00 20.2 11 Este 26 Este 0 -- -- 37
2019-03-31 13:00:00 18.3 12 Nordeste 23 Este 0 -- -- 41
2019-03-31 12:00:00 16.4 12 Este 23 Este 0 -- -- 43
2019-03-31 11:00:00 12 9 Nordeste 19 Este 0 -- -- 52
2019-03-31 10:00:00 8.5 6 Nordeste 17 Este 0 -- -- 60
2019-03-31 09:00:00 1.7 0 Calma 2 Sur 0 -- -- 80
2019-03-31 08:00:00 -0.1 0 Calma 6 Nordeste 0 -- -- 81
2019-03-31 07:00:00 -0.2 3 Nordeste 6 Este 0 -- -- 82
2019-03-31 06:00:00 -0.7 2 Nordeste 6 Este 0 -- -- 82
2019-03-31 05:00:00 1.6 0 Calma 6 Nordeste 0 -- -- 75
2019-03-31 03:00:00 2.8 0 Calma 5 Nordeste 0 -- -- 67
2019-03-31 01:00:00 2.4 0 Calma 4 Nordeste 0 -- -- 67
2019-03-31 00:00:00 3.8 4 Nordeste 10 Sudoeste 0 -- -- 62
2019-03-30 23:00:00 4.4 2 Sudoeste 6 Nordeste 0 -- -- 58
2019-03-30 22:00:00 5.6 2 Este 8 Este 0 -- -- 52
2019-03-30 21:00:00 7.1 0 Calma 6 Este 0 -- -- 46
2019-03-30 20:00:00 10.3 4 Sudeste 6 Sudeste 0 -- -- 39
2019-03-30 19:00:00 21.6 2 Este 15 Nordeste 0 -- -- 21
2019-03-30 18:00:00 21.5 5 Este 14 Norte 0 -- -- 18
2019-03-30 17:00:00 21 8 Norte 19 Este 0 -- -- 21
2019-03-30 16:00:00 22.4 5 Este 20 Nordeste 0 -- -- 21
2019-03-30 15:00:00 20.7 10 Nordeste 20 Nordeste 0 -- -- 25
2019-03-30 14:00:00 20.5 8 Este 18 Este 0 -- -- 27
2019-03-30 13:00:00 19.4 6 Nordeste 18 Sudeste 0 -- -- 29
2019-03-30 12:00:00 19 4 Sudeste 15 Sur 0 -- -- 32
2019-03-30 11:00:00 15.1 6 Nordeste 15 Norte 0 -- -- 42
2019-03-30 10:00:00 10.9 5 Nordeste 14 Nordeste 0 -- -- 53
2019-03-30 09:00:00 5.8 6 Nordeste 13 Nordeste 0 -- -- 66
2019-03-30 08:00:00 -0.5 0 Calma 5 Nordeste 0 -- -- 89
2019-03-30 07:00:00 -1.7 3 Este 8 Este 0 -- -- 87
2019-03-30 06:00:00 -1.2 3 Nordeste 7 Este 0 -- -- 85
2019-03-30 05:00:00 -0.6 2 Nordeste 6 Este 0 -- -- 80
2019-03-30 04:00:00 0.8 3 Este 8 Sudeste 0 -- -- 75
2019-03-30 03:00:00 1.5 3 Nordeste 7 Este 0 -- -- 71
2019-03-30 02:00:00 2.7 4 Este 11 Este 0 -- -- 65
2019-03-30 01:00:00 4 3 Nordeste 5 Nordeste 0 -- -- 60
2019-03-30 00:00:00 7.4 3 Nordeste 8 Nordeste 0 -- -- 48
2019-03-29 23:00:00 10.3 3 Oeste 27 Sur 0 -- -- 36
2019-03-29 22:00:00 13.1 19 Sur 27 Sur 0 -- -- 31
2019-03-29 21:00:00 14.2 13 Sur 26 Sur 0 -- -- 29
2019-03-29 20:00:00 14.4 8 Sur 17 Sur 0 -- -- 32
2019-03-29 19:00:00 16 0 Calma 5 Nordeste 0 -- -- 43
2019-03-29 18:00:00 18.1 3 Nordeste 9 Sudeste 0 -- -- 35
2019-03-29 17:00:00 21.3 3 Este 13 Nordeste 0 -- -- 22
2019-03-29 16:00:00 21.9 9 Este 19 Este 0 -- -- 22
2019-03-29 15:00:00 20 5 Norte 15 Norte 0 -- -- 24
2019-03-29 14:00:00 19.4 6 Norte 15 Sur 0 -- -- 24
2019-03-29 13:00:00 19.8 5 Sur 19 Sur 0 -- -- 25
2019-03-29 12:00:00 17.7 11 Sudoeste 26 Noroeste 0 -- -- 28
2019-03-29 11:00:00 14.7 3 Norte 12 Norte 0 -- -- 40
2019-03-29 10:00:00 10.1 5 Nordeste 15 Este 0 -- -- 52
2019-03-29 09:00:00 5.2 6 Nordeste 12 Nordeste 0 -- -- 70
2019-03-29 08:00:00 -0.8 2 Nordeste 7 Este 0 -- -- 98
2019-03-29 07:00:00 -1.9 5 Este 9 Nordeste 0 -- -- 98
2019-03-29 06:00:00 -1.4 4 Este 8 Este 0 -- -- 98
2019-03-29 05:00:00 -1.5 3 Nordeste 7 Nordeste 0 -- -- 97
2019-03-29 04:00:00 -1.5 3 Nordeste 6 Este 0 -- -- 96
2019-03-29 03:00:00 -1 0 Calma 4 Este 0 -- -- 93
2019-03-29 02:00:00 0.6 0 Calma 8 Este 0 -- -- 91
2019-03-29 01:00:00 2.2 0 Calma 7 Sudeste 0 -- -- 85
2019-03-29 00:00:00 4.6 4 Sudeste 13 Nordeste 0 -- -- 77
2019-03-28 23:00:00 8.1 6 Nordeste 17 Nordeste 0 -- -- 67
2019-03-28 22:00:00 9.6 8 Nordeste 23 Nordeste 0 -- -- 61
2019-03-28 21:00:00 12 12 Nordeste 26 Norte 0 -- -- 50
2019-03-28 20:00:00 13.1 6 Este 17 Nordeste 0 -- -- 44
2019-03-28 19:00:00 18.9 6 Nordeste 15 Nordeste 0 -- -- 29
2019-03-28 18:00:00 20.7 7 Nordeste 19 Nordeste 0 -- -- 24
2019-03-28 17:00:00 21.5 6 Nordeste 26 Nordeste 0 -- -- 21
2019-03-28 16:00:00 21.8 8 Este 19 Este 0 -- -- 22
2019-03-28 15:00:00 19.9 9 Sudeste 23 Este 0 -- -- 23
2019-03-28 14:00:00 18.8 8 Nordeste 24 Este 0 -- -- 25
2019-03-28 13:00:00 17.9 11 Este 25 Nordeste 0 -- -- 26
2019-03-28 12:00:00 15.7 8 Nordeste 23 Este 0 -- -- 31
2019-03-28 11:00:00 14 10 Nordeste 20 Este 0 -- -- 35
2019-03-28 10:00:00 9.8 10 Este 23 Este 0 -- -- 47
2019-03-28 09:00:00 5.4 8 Este 19 Este 0 -- -- 63
2019-03-28 08:00:00 -1.4 4 Nordeste 7 Este 0 -- -- 89
2019-03-28 07:00:00 -1.2 4 Nordeste 13 Este 0 -- -- 83
2019-03-28 06:00:00 0 6 Nordeste 13 Este 0 -- -- 75
2019-03-28 05:00:00 -0.2 2 Este 9 Este 0 -- -- 70
2019-03-28 04:00:00 2 5 Este 13 Nordeste 0 -- -- 59
2019-03-28 03:00:00 3.4 8 Nordeste 17 Nordeste 0 -- -- 51
2019-03-28 02:00:00 4.1 9 Nordeste 22 Nordeste 0 -- -- 43
2019-03-28 01:00:00 5.8 11 Nordeste 27 Nordeste 0 -- -- 39
2019-03-28 00:00:00 6.7 11 Este 27 Nordeste 0 -- -- 38
2019-03-27 23:00:00 7.8 13 Nordeste 43 Nordeste 0 -- -- 36
2019-03-27 22:00:00 8.8 13 Nordeste 28 Este 0 -- -- 35
2019-03-27 21:00:00 10.1 12 Este 32 Este 0 -- -- 34
2019-03-27 20:00:00 11.9 9 Este 28 Nordeste 0 -- -- 32
2019-03-27 19:00:00 16.5 14 Nordeste 42 Nordeste 0 -- -- 21
2019-03-27 18:00:00 19 17 Nordeste 40 Este 0 -- -- 18
2019-03-27 17:00:00 20.6 16 Nordeste 32 Nordeste 0 -- -- 19
2019-03-27 16:00:00 21.5 13 Nordeste 31 Nordeste 0 -- -- 17
2019-03-27 15:00:00 21.2 12 Nordeste 31 Este 0 -- -- 17
2019-03-27 14:00:00 20.1 12 Nordeste 30 Este 0 -- -- 18
2019-03-27 13:00:00 18.5 9 Nordeste 24 Nordeste 0 -- -- 21
2019-03-27 12:00:00 16.5 8 Nordeste 23 Este 0 -- -- 24
2019-03-27 11:00:00 14.5 8 Este 23 Este 0 -- -- 29
2019-03-27 10:00:00 10.6 9 Este 18 Nordeste 0 -- -- 35
2019-03-27 09:00:00 5.5 5 Nordeste 12 Este 0 -- -- 52
2019-03-27 08:00:00 -0.7 0 Calma 8 Nordeste 0 -- -- 74
2019-03-27 07:00:00 -1.2 4 Nordeste 10 Nordeste 0 -- -- 78
2019-03-27 06:00:00 0.1 4 Este 16 Nordeste 0 -- -- 72
2019-03-27 05:00:00 1.7 7 Nordeste 21 Este 0 -- -- 68
2019-03-27 04:00:00 2.2 10 Este 22 Este 0 -- -- 65
2019-03-27 03:00:00 3 10 Nordeste 22 Este 0 -- -- 60
2019-03-27 02:00:00 3.1 10 Nordeste 20 Nordeste 0 -- -- 55
2019-03-27 01:00:00 3.6 10 Nordeste 19 Nordeste 0 -- -- 50
2019-03-27 00:00:00 4.8 4 Este 21 Nordeste 0 -- -- 44
2019-03-26 23:00:00 5.8 7 Nordeste 27 Nordeste 0 -- -- 37
2019-03-26 22:00:00 8 15 Nordeste 35 Este 0 -- -- 30
2019-03-26 21:00:00 9.3 12 Este 33 Este 0 -- -- 28
2019-03-26 20:00:00 10.9 13 Este 28 Este 0 -- -- 27
2019-03-26 19:00:00 16.2 13 Este 32 Nordeste 0 -- -- 22
2019-03-26 18:00:00 19.1 15 Nordeste 38 Nordeste 0 -- -- 20
2019-03-26 17:00:00 20.5 17 Nordeste 39 Nordeste 0 -- -- 19
2019-03-26 16:00:00 22.9 14 Este 35 Nordeste 0 -- -- 17
2019-03-26 15:00:00 21.3 17 Este 45 Este 0 -- -- 19
2019-03-26 14:00:00 20.2 16 Este 37 Este 0 -- -- 20
2019-03-26 13:00:00 17.7 15 Nordeste 37 Este 0 -- -- 24
2019-03-26 12:00:00 14.8 15 Nordeste 31 Nordeste 0 -- -- 30
2019-03-26 11:00:00 12.6 12 Este 34 Nordeste 0 -- -- 41
2019-03-26 10:00:00 8.7 13 Nordeste 32 Nordeste 0 -- -- 52
2019-03-26 09:00:00 5.8 14 Nordeste 34 Este 0 -- -- 65
2019-03-26 08:00:00 3.6 12 Nordeste 25 Este 0 -- -- 74
2019-03-26 07:00:00 3.3 12 Nordeste 31 Este 0 -- -- 76
2019-03-26 06:00:00 3.7 17 Nordeste 36 Nordeste 0 -- -- 78
2019-03-26 05:00:00 3.3 9 Este 30 Nordeste 0 -- -- 83
2019-03-26 04:00:00 3.5 13 Este 25 Este 0 -- -- 81
2019-03-26 03:00:00 3.1 12 Este 33 Este 0 -- -- 77
2019-03-26 02:00:00 3.1 16 Este 35 Nordeste 0 -- -- 72
2019-03-26 01:00:00 3.4 13 Este 36 Nordeste 0 -- -- 69
2019-03-26 00:00:00 4 12 Este 36 Nordeste 0 -- -- 66
2019-03-25 23:00:00 5.1 13 Este 34 Este 0 -- -- 63
2019-03-25 22:00:00 6.1 13 Este 34 Nordeste 0 -- -- 60
2019-03-25 21:00:00 7.6 14 Nordeste 32 Nordeste 0 -- -- 59
2019-03-25 20:00:00 9 14 Nordeste 39 Nordeste 0 -- -- 55
2019-03-25 19:00:00 13 13 Nordeste 38 Nordeste 0 -- -- 46
2019-03-25 18:00:00 15.3 19 Nordeste 42 Nordeste 0 -- -- 37
2019-03-25 17:00:00 16.6 19 Nordeste 36 Nordeste 0 -- -- 34
2019-03-25 16:00:00 17.9 14 Nordeste 37 Norte 0 -- -- 35
2019-03-25 15:00:00 17 18 Nordeste 39 Norte 0 -- -- 37
2019-03-25 14:00:00 16.5 17 Nordeste 37 Este 0 -- -- 40
2019-03-25 13:00:00 15.7 15 Nordeste 34 Nordeste 0 -- -- 40
2019-03-25 12:00:00 14.2 16 Nordeste 36 Nordeste 0 -- -- 45
2019-03-25 11:00:00 12.6 16 Nordeste 35 Este 0 -- -- 54
2019-03-25 10:00:00 10.8 14 Nordeste 33 Nordeste 0 -- -- 62
2019-03-25 09:00:00 7.7 10 Nordeste 25 Nordeste 0 -- -- 76
2019-03-25 08:00:00 5.2 6 Nordeste 23 Nordeste 0 -- -- 81
2019-03-25 07:00:00 1.4 5 Nordeste 13 Nordeste 0 -- -- 94
2019-03-25 06:00:00 0.9 4 Nordeste 7 Nordeste 0 -- -- 91
2019-03-25 05:00:00 2.1 4 Este 7 Nordeste 0 -- -- 84
2019-03-25 04:00:00 4.9 3 Sudeste 13 Este 0 -- -- 72
2019-03-25 03:00:00 6.7 6 Este 18 Este 0 -- -- 67
2019-03-25 02:00:00 8.1 9 Nordeste 23 Nordeste 0 -- -- 62
2019-03-25 01:00:00 9.3 8 Este 24 Este 0 -- -- 59
2019-03-25 00:00:00 10.7 9 Este 33 Este 0 -- -- 54